Terminal Aerodrome Forecast
Issued by NWS Mt. Holly, NJ

Home | Current Version | Previous Version | Text Only | Print | Product List | Glossary On
Versions: 1 2 3 4 5 6 7 8 9 10 11 12 13 14 15 16 17 18 19 20 21 22 23 24
000
FTUS41 KPHI 242320
TAFPHL
TAF
KPHL 242320Z 2500/2606 22010KT P6SM BKN150
     FM250200 22005KT P6SM SCT100 BKN250
      TEMPO 2503/2507 6SM -SHRA OVC060
     FM251200 25007KT P6SM BKN060 OVC150
     FM251800 22009G18KT P6SM SCT070 BKN150
     FM252300 24010KT P6SM BKN060 PROB30 2523/2524 5SM -TSRA
      BKN040CB=

USA.gov is the U.S. government's official web portal to all federal, state and local government web resources and services.